sensor_id;sensor_type;location;lat;lon;timestamp;P1;durP1;ratioP1;P2;durP2;ratioP2
37485;SDS011;23341;50.296;18.960;2023-09-18T00:02:21;8.23;;;7.45;;
37485;SDS011;23341;50.296;18.960;2023-09-18T00:07:26;8.55;;;7.70;;
37485;SDS011;23341;50.296;18.960;2023-09-18T00:12:31;9.55;;;7.78;;
37485;SDS011;23341;50.296;18.960;2023-09-18T00:17:36;10.32;;;7.80;;
37485;SDS011;23341;50.296;18.960;2023-09-18T00:22:41;7.78;;;7.07;;
37485;SDS011;23341;50.296;18.960;2023-09-18T00:27:45;10.55;;;7.55;;
37485;SDS011;23341;50.296;18.960;2023-09-18T00:32:51;8.57;;;7.38;;
37485;SDS011;23341;50.296;18.960;2023-09-18T00:37:55;7.97;;;7.18;;
37485;SDS011;23341;50.296;18.960;2023-09-18T00:42:59;10.55;;;7.75;;
37485;SDS011;23341;50.296;18.960;2023-09-18T00:48:06;7.03;;;6.43;;
37485;SDS011;23341;50.296;18.960;2023-09-18T00:53:10;8.63;;;7.72;;
37485;SDS011;23341;50.296;18.960;2023-09-18T00:58:18;7.22;;;6.63;;
37485;SDS011;23341;50.296;18.960;2023-09-18T01:03:24;7.38;;;6.47;;
37485;SDS011;23341;50.296;18.960;2023-09-18T01:08:29;7.85;;;6.90;;
37485;SDS011;23341;50.296;18.960;2023-09-18T01:13:35;8.52;;;7.63;;
37485;SDS011;23341;50.296;18.960;2023-09-18T01:18:50;8.75;;;7.90;;
37485;SDS011;23341;50.296;18.960;2023-09-18T01:23:56;8.05;;;7.35;;
37485;SDS011;23341;50.296;18.960;2023-09-18T01:29:00;9.02;;;8.10;;
37485;SDS011;23341;50.296;18.960;2023-09-18T01:34:05;7.97;;;6.95;;
37485;SDS011;23341;50.296;18.960;2023-09-18T01:39:11;7.93;;;7.15;;
37485;SDS011;23341;50.296;18.960;2023-09-18T01:44:16;9.73;;;8.80;;
37485;SDS011;23341;50.296;18.960;2023-09-18T01:49:26;8.07;;;7.32;;
37485;SDS011;23341;50.296;18.960;2023-09-18T01:54:34;8.10;;;7.30;;
37485;SDS011;23341;50.296;18.960;2023-09-18T01:59:39;11.70;;;6.45;;
37485;SDS011;23341;50.296;18.960;2023-09-18T02:04:44;7.95;;;7.03;;
37485;SDS011;23341;50.296;18.960;2023-09-18T02:10:10;7.68;;;7.03;;
37485;SDS011;23341;50.296;18.960;2023-09-18T02:15:15;9.35;;;6.78;;
37485;SDS011;23341;50.296;18.960;2023-09-18T02:20:20;8.15;;;7.43;;
37485;SDS011;23341;50.296;18.960;2023-09-18T02:25:25;8.23;;;7.53;;
37485;SDS011;23341;50.296;18.960;2023-09-18T02:30:30;8.32;;;7.53;;
37485;SDS011;23341;50.296;18.960;2023-09-18T02:35:34;9.07;;;8.18;;
37485;SDS011;23341;50.296;18.960;2023-09-18T02:40:40;9.65;;;8.75;;
37485;SDS011;23341;50.296;18.960;2023-09-18T02:45:44;8.65;;;7.88;;
37485;SDS011;23341;50.296;18.960;2023-09-18T02:50:49;9.98;;;9.05;;
37485;SDS011;23341;50.296;18.960;2023-09-18T02:55:55;9.82;;;8.70;;
37485;SDS011;23341;50.296;18.960;2023-09-18T03:01:00;11.32;;;9.38;;
37485;SDS011;23341;50.296;18.960;2023-09-18T03:06:07;9.75;;;8.80;;
37485;SDS011;23341;50.296;18.960;2023-09-18T03:11:14;10.70;;;8.93;;
37485;SDS011;23341;50.296;18.960;2023-09-18T03:16:19;10.45;;;9.65;;
37485;SDS011;23341;50.296;18.960;2023-09-18T03:21:24;11.00;;;9.88;;
37485;SDS011;23341;50.296;18.960;2023-09-18T03:26:30;11.95;;;10.07;;
37485;SDS011;23341;50.296;18.960;2023-09-18T03:31:34;10.55;;;9.50;;
37485;SDS011;23341;50.296;18.960;2023-09-18T03:36:39;12.98;;;9.98;;
37485;SDS011;23341;50.296;18.960;2023-09-18T03:41:45;12.00;;;10.77;;
37485;SDS011;23341;50.296;18.960;2023-09-18T03:46:49;10.32;;;9.30;;
37485;SDS011;23341;50.296;18.960;2023-09-18T03:51:53;11.98;;;10.90;;
37485;SDS011;23341;50.296;18.960;2023-09-18T03:56:59;10.63;;;9.63;;
37485;SDS011;23341;50.296;18.960;2023-09-18T04:02:03;11.38;;;10.27;;
37485;SDS011;23341;50.296;18.960;2023-09-18T04:07:08;12.68;;;11.38;;
37485;SDS011;23341;50.296;18.960;2023-09-18T04:12:15;12.30;;;11.20;;
37485;SDS011;23341;50.296;18.960;2023-09-18T04:17:20;12.55;;;10.48;;
37485;SDS011;23341;50.296;18.960;2023-09-18T04:22:25;13.02;;;11.73;;
37485;SDS011;23341;50.296;18.960;2023-09-18T04:27:31;13.23;;;12.05;;
37485;SDS011;23341;50.296;18.960;2023-09-18T04:32:35;13.95;;;12.57;;
37485;SDS011;23341;50.296;18.960;2023-09-18T04:37:41;16.80;;;12.73;;
37485;SDS011;23341;50.296;18.960;2023-09-18T04:42:47;15.00;;;13.50;;
37485;SDS011;23341;50.296;18.960;2023-09-18T04:47:52;16.77;;;13.73;;
37485;SDS011;23341;50.296;18.960;2023-09-18T04:52:57;15.07;;;13.52;;
37485;SDS011;23341;50.296;18.960;2023-09-18T04:58:03;13.73;;;12.48;;
37485;SDS011;23341;50.296;18.960;2023-09-18T05:03:09;15.32;;;12.98;;
37485;SDS011;23341;50.296;18.960;2023-09-18T05:08:14;14.85;;;13.43;;
37485;SDS011;23341;50.296;18.960;2023-09-18T05:13:23;15.32;;;13.32;;
37485;SDS011;23341;50.296;18.960;2023-09-18T05:18:27;15.20;;;13.82;;
37485;SDS011;23341;50.296;18.960;2023-09-18T05:23:31;15.52;;;13.85;;
37485;SDS011;23341;50.296;18.960;2023-09-18T05:28:37;14.93;;;12.90;;
37485;SDS011;23341;50.296;18.960;2023-09-18T05:33:42;15.23;;;13.63;;
37485;SDS011;23341;50.296;18.960;2023-09-18T05:38:46;15.05;;;13.73;;
37485;SDS011;23341;50.296;18.960;2023-09-18T05:43:52;14.40;;;12.80;;
37485;SDS011;23341;50.296;18.960;2023-09-18T05:48:56;16.40;;;12.90;;
37485;SDS011;23341;50.296;18.960;2023-09-18T05:54:02;14.65;;;13.20;;
37485;SDS011;23341;50.296;18.960;2023-09-18T05:59:08;14.43;;;13.02;;
37485;SDS011;23341;50.296;18.960;2023-09-18T06:04:13;14.00;;;12.63;;
37485;SDS011;23341;50.296;18.960;2023-09-18T06:09:17;15.70;;;13.10;;
37485;SDS011;23341;50.296;18.960;2023-09-18T06:14:23;16.88;;;12.70;;
37485;SDS011;23341;50.296;18.960;2023-09-18T06:19:27;16.98;;;12.32;;
37485;SDS011;23341;50.296;18.960;2023-09-18T06:24:33;14.35;;;12.95;;
37485;SDS011;23341;50.296;18.960;2023-09-18T06:29:39;15.40;;;12.38;;
37485;SDS011;23341;50.296;18.960;2023-09-18T06:34:45;13.20;;;11.80;;
37485;SDS011;23341;50.296;18.960;2023-09-18T06:39:50;12.73;;;11.52;;
37485;SDS011;23341;50.296;18.960;2023-09-18T06:44:55;16.65;;;10.60;;
37485;SDS011;23341;50.296;18.960;2023-09-18T06:50:00;11.05;;;9.77;;
37485;SDS011;23341;50.296;18.960;2023-09-18T06:55:07;9.13;;;8.43;;
37485;SDS011;23341;50.296;18.960;2023-09-18T07:00:14;20.13;;;9.20;;
37485;SDS011;23341;50.296;18.960;2023-09-18T07:05:21;13.52;;;9.15;;
37485;SDS011;23341;50.296;18.960;2023-09-18T07:10:25;12.90;;;10.02;;
37485;SDS011;23341;50.296;18.960;2023-09-18T07:15:31;13.40;;;7.97;;
37485;SDS011;23341;50.296;18.960;2023-09-18T07:20:35;8.10;;;7.50;;
37485;SDS011;23341;50.296;18.960;2023-09-18T07:25:39;13.48;;;7.68;;
37485;SDS011;23341;50.296;18.960;2023-09-18T07:30:47;10.30;;;7.72;;
37485;SDS011;23341;50.296;18.960;2023-09-18T07:35:51;7.30;;;6.75;;
37485;SDS011;23341;50.296;18.960;2023-09-18T07:40:56;13.15;;;8.52;;
37485;SDS011;23341;50.296;18.960;2023-09-18T07:46:01;7.40;;;6.85;;
37485;SDS011;23341;50.296;18.960;2023-09-18T07:51:06;7.95;;;7.40;;
37485;SDS011;23341;50.296;18.960;2023-09-18T07:56:10;8.75;;;7.95;;
37485;SDS011;23341;50.296;18.960;2023-09-18T08:01:16;7.93;;;7.32;;
37485;SDS011;23341;50.296;18.960;2023-09-18T08:06:20;9.10;;;8.27;;
37485;SDS011;23341;50.296;18.960;2023-09-18T08:11:25;9.48;;;8.55;;
37485;SDS011;23341;50.296;18.960;2023-09-18T08:16:31;9.40;;;8.70;;
37485;SDS011;23341;50.296;18.960;2023-09-18T08:21:35;15.75;;;9.40;;
37485;SDS011;23341;50.296;18.960;2023-09-18T08:26:39;10.82;;;9.00;;
37485;SDS011;23341;50.296;18.960;2023-09-18T08:31:46;9.35;;;8.27;;
37485;SDS011;23341;50.296;18.960;2023-09-18T08:36:50;10.52;;;9.43;;
37485;SDS011;23341;50.296;18.960;2023-09-18T08:41:56;13.45;;;9.77;;
37485;SDS011;23341;50.296;18.960;2023-09-18T08:47:03;10.43;;;9.40;;
37485;SDS011;23341;50.296;18.960;2023-09-18T08:52:09;11.48;;;9.77;;
37485;SDS011;23341;50.296;18.960;2023-09-18T08:57:15;10.95;;;10.05;;
37485;SDS011;23341;50.296;18.960;2023-09-18T09:02:21;11.20;;;9.88;;
37485;SDS011;23341;50.296;18.960;2023-09-18T09:07:25;10.65;;;9.73;;
37485;SDS011;23341;50.296;18.960;2023-09-18T09:12:46;11.35;;;10.05;;
37485;SDS011;23341;50.296;18.960;2023-09-18T09:18:05;12.30;;;11.07;;
37485;SDS011;23341;50.296;18.960;2023-09-18T09:23:11;11.70;;;10.73;;
37485;SDS011;23341;50.296;18.960;2023-09-18T09:28:16;11.63;;;10.30;;
37485;SDS011;23341;50.296;18.960;2023-09-18T09:33:34;12.32;;;11.35;;
37485;SDS011;23341;50.296;18.960;2023-09-18T09:38:38;14.20;;;10.85;;
37485;SDS011;23341;50.296;18.960;2023-09-18T09:43:43;12.00;;;10.85;;
37485;SDS011;23341;50.296;18.960;2023-09-18T09:48:59;13.48;;;10.65;;
37485;SDS011;23341;50.296;18.960;2023-09-18T09:54:04;13.27;;;11.40;;
37485;SDS011;23341;50.296;18.960;2023-09-18T09:59:09;12.73;;;10.85;;
37485;SDS011;23341;50.296;18.960;2023-09-18T10:04:17;11.60;;;10.50;;
37485;SDS011;23341;50.296;18.960;2023-09-18T10:09:23;13.43;;;10.55;;
37485;SDS011;23341;50.296;18.960;2023-09-18T10:14:32;11.15;;;10.07;;
37485;SDS011;23341;50.296;18.960;2023-09-18T10:19:59;15.60;;;11.02;;
37485;SDS011;23341;50.296;18.960;2023-09-18T10:25:13;12.27;;;10.15;;
37485;SDS011;23341;50.296;18.960;2023-09-18T10:30:21;11.10;;;10.10;;
37485;SDS011;23341;50.296;18.960;2023-09-18T10:35:27;16.52;;;10.20;;
37485;SDS011;23341;50.296;18.960;2023-09-18T10:40:32;10.07;;;9.30;;
37485;SDS011;23341;50.296;18.960;2023-09-18T10:45:38;10.80;;;9.82;;
37485;SDS011;23341;50.296;18.960;2023-09-18T10:50:47;9.40;;;8.70;;
37485;SDS011;23341;50.296;18.960;2023-09-18T10:55:52;9.70;;;8.90;;
37485;SDS011;23341;50.296;18.960;2023-09-18T11:00:59;10.27;;;9.48;;
37485;SDS011;23341;50.296;18.960;2023-09-18T11:06:05;11.95;;;8.90;;
37485;SDS011;23341;50.296;18.960;2023-09-18T11:11:12;9.05;;;8.30;;
37485;SDS011;23341;50.296;18.960;2023-09-18T11:16:33;12.73;;;8.27;;
37485;SDS011;23341;50.296;18.960;2023-09-18T11:21:43;9.13;;;8.32;;
37485;SDS011;23341;50.296;18.960;2023-09-18T11:26:48;9.40;;;8.30;;
37485;SDS011;23341;50.296;18.960;2023-09-18T11:31:55;8.93;;;8.02;;
37485;SDS011;23341;50.296;18.960;2023-09-18T11:37:20;9.40;;;8.60;;
37485;SDS011;23341;50.296;18.960;2023-09-18T11:42:28;8.35;;;7.60;;
37485;SDS011;23341;50.296;18.960;2023-09-18T11:47:32;8.07;;;7.47;;
37485;SDS011;23341;50.296;18.960;2023-09-18T11:52:47;8.70;;;7.72;;
37485;SDS011;23341;50.296;18.960;2023-09-18T11:57:51;10.75;;;7.40;;
37485;SDS011;23341;50.296;18.960;2023-09-18T12:03:13;10.48;;;7.55;;
37485;SDS011;23341;50.296;18.960;2023-09-18T12:08:22;7.30;;;6.70;;
37485;SDS011;23341;50.296;18.960;2023-09-18T12:13:29;15.03;;;7.03;;
37485;SDS011;23341;50.296;18.960;2023-09-18T12:18:35;7.50;;;6.80;;
37485;SDS011;23341;50.296;18.960;2023-09-18T12:23:42;6.93;;;6.40;;
37485;SDS011;23341;50.296;18.960;2023-09-18T12:28:47;6.80;;;6.07;;
37485;SDS011;23341;50.296;18.960;2023-09-18T12:33:52;7.30;;;6.70;;
37485;SDS011;23341;50.296;18.960;2023-09-18T12:39:01;8.63;;;6.25;;
37485;SDS011;23341;50.296;18.960;2023-09-18T12:44:06;7.35;;;6.05;;
37485;SDS011;23341;50.296;18.960;2023-09-18T12:49:17;8.75;;;6.47;;
37485;SDS011;23341;50.296;18.960;2023-09-18T12:54:37;6.45;;;5.85;;
37485;SDS011;23341;50.296;18.960;2023-09-18T12:59:45;6.40;;;6.00;;
37485;SDS011;23341;50.296;18.960;2023-09-18T13:04:53;6.50;;;5.90;;
37485;SDS011;23341;50.296;18.960;2023-09-18T13:10:00;6.22;;;5.70;;
37485;SDS011;23341;50.296;18.960;2023-09-18T13:15:07;7.35;;;6.25;;
37485;SDS011;23341;50.296;18.960;2023-09-18T13:20:15;6.78;;;6.05;;
37485;SDS011;23341;50.296;18.960;2023-09-18T13:25:25;5.80;;;5.28;;
37485;SDS011;23341;50.296;18.960;2023-09-18T13:30:33;6.80;;;6.07;;
37485;SDS011;23341;50.296;18.960;2023-09-18T13:40:47;6.60;;;6.00;;
37485;SDS011;23341;50.296;18.960;2023-09-18T13:45:52;6.10;;;5.57;;
37485;SDS011;23341;50.296;18.960;2023-09-18T13:50:57;7.45;;;5.88;;
37485;SDS011;23341;50.296;18.960;2023-09-18T13:56:03;6.30;;;5.80;;
37485;SDS011;23341;50.296;18.960;2023-09-18T14:01:08;6.90;;;5.65;;
37485;SDS011;23341;50.296;18.960;2023-09-18T14:06:12;6.38;;;5.80;;
37485;SDS011;23341;50.296;18.960;2023-09-18T14:11:18;6.45;;;5.85;;
37485;SDS011;23341;50.296;18.960;2023-09-18T14:16:23;6.28;;;5.72;;
37485;SDS011;23341;50.296;18.960;2023-09-18T14:21:27;7.10;;;6.32;;
37485;SDS011;23341;50.296;18.960;2023-09-18T14:26:37;6.75;;;6.13;;
37485;SDS011;23341;50.296;18.960;2023-09-18T14:31:44;6.05;;;5.45;;
37485;SDS011;23341;50.296;18.960;2023-09-18T14:36:48;6.55;;;5.60;;
37485;SDS011;23341;50.296;18.960;2023-09-18T14:41:54;6.57;;;5.97;;
37485;SDS011;23341;50.296;18.960;2023-09-18T14:46:58;6.32;;;5.72;;
37485;SDS011;23341;50.296;18.960;2023-09-18T14:52:03;6.07;;;5.50;;
37485;SDS011;23341;50.296;18.960;2023-09-18T14:57:09;7.70;;;6.00;;
37485;SDS011;23341;50.296;18.960;2023-09-18T15:02:13;7.93;;;5.68;;
37485;SDS011;23341;50.296;18.960;2023-09-18T15:07:18;6.30;;;5.80;;
37485;SDS011;23341;50.296;18.960;2023-09-18T15:12:24;5.93;;;5.38;;
37485;SDS011;23341;50.296;18.960;2023-09-18T15:17:28;6.65;;;6.15;;
37485;SDS011;23341;50.296;18.960;2023-09-18T15:22:32;7.70;;;6.57;;
37485;SDS011;23341;50.296;18.960;2023-09-18T15:27:38;5.80;;;5.40;;
37485;SDS011;23341;50.296;18.960;2023-09-18T15:32:47;9.60;;;6.32;;
37485;SDS011;23341;50.296;18.960;2023-09-18T15:37:53;6.18;;;5.68;;
37485;SDS011;23341;50.296;18.960;2023-09-18T15:42:59;8.07;;;5.82;;
37485;SDS011;23341;50.296;18.960;2023-09-18T15:48:04;6.05;;;5.55;;
37485;SDS011;23341;50.296;18.960;2023-09-18T15:53:09;6.43;;;5.88;;
37485;SDS011;23341;50.296;18.960;2023-09-18T15:58:14;6.85;;;6.20;;
37485;SDS011;23341;50.296;18.960;2023-09-18T16:03:20;6.78;;;6.13;;
37485;SDS011;23341;50.296;18.960;2023-09-18T16:08:25;6.80;;;6.20;;
37485;SDS011;23341;50.296;18.960;2023-09-18T16:13:30;8.38;;;6.20;;
37485;SDS011;23341;50.296;18.960;2023-09-18T16:18:35;7.88;;;6.53;;
37485;SDS011;23341;50.296;18.960;2023-09-18T16:23:41;6.63;;;6.07;;
37485;SDS011;23341;50.296;18.960;2023-09-18T16:28:46;6.68;;;6.18;;
37485;SDS011;23341;50.296;18.960;2023-09-18T16:33:51;8.88;;;8.05;;
37485;SDS011;23341;50.296;18.960;2023-09-18T16:38:55;7.53;;;6.93;;
37485;SDS011;23341;50.296;18.960;2023-09-18T16:44:01;7.88;;;7.10;;
37485;SDS011;23341;50.296;18.960;2023-09-18T16:49:06;8.35;;;6.63;;
37485;SDS011;23341;50.296;18.960;2023-09-18T16:54:12;7.25;;;6.65;;
37485;SDS011;23341;50.296;18.960;2023-09-18T16:59:19;8.82;;;7.97;;
37485;SDS011;23341;50.296;18.960;2023-09-18T17:04:28;8.88;;;6.97;;
37485;SDS011;23341;50.296;18.960;2023-09-18T17:09:33;8.73;;;7.93;;
37485;SDS011;23341;50.296;18.960;2023-09-18T17:14:38;8.75;;;7.80;;
37485;SDS011;23341;50.296;18.960;2023-09-18T17:19:43;10.13;;;7.75;;
37485;SDS011;23341;50.296;18.960;2023-09-18T17:24:48;8.65;;;7.53;;
37485;SDS011;23341;50.296;18.960;2023-09-18T17:29:55;8.50;;;7.70;;
37485;SDS011;23341;50.296;18.960;2023-09-18T17:35:04;8.32;;;7.63;;
37485;SDS011;23341;50.296;18.960;2023-09-18T17:40:14;9.80;;;7.90;;
37485;SDS011;23341;50.296;18.960;2023-09-18T17:45:23;8.55;;;7.70;;
37485;SDS011;23341;50.296;18.960;2023-09-18T17:50:27;8.90;;;8.07;;
37485;SDS011;23341;50.296;18.960;2023-09-18T17:55:37;8.00;;;7.20;;
37485;SDS011;23341;50.296;18.960;2023-09-18T18:00:46;9.73;;;8.73;;
37485;SDS011;23341;50.296;18.960;2023-09-18T18:05:51;8.48;;;7.68;;
37485;SDS011;23341;50.296;18.960;2023-09-18T18:10:55;10.52;;;9.10;;
37485;SDS011;23341;50.296;18.960;2023-09-18T18:16:04;11.63;;;8.73;;
37485;SDS011;23341;50.296;18.960;2023-09-18T18:21:08;9.73;;;8.82;;
37485;SDS011;23341;50.296;18.960;2023-09-18T18:26:17;9.18;;;8.38;;
37485;SDS011;23341;50.296;18.960;2023-09-18T18:31:25;9.70;;;8.90;;
37485;SDS011;23341;50.296;18.960;2023-09-18T18:36:29;10.05;;;8.65;;
37485;SDS011;23341;50.296;18.960;2023-09-18T18:41:34;10.15;;;8.57;;
37485;SDS011;23341;50.296;18.960;2023-09-18T18:46:40;10.32;;;8.82;;
37485;SDS011;23341;50.296;18.960;2023-09-18T18:51:45;9.75;;;8.20;;
37485;SDS011;23341;50.296;18.960;2023-09-18T18:56:49;11.50;;;8.82;;
37485;SDS011;23341;50.296;18.960;2023-09-18T19:01:55;9.38;;;8.48;;
37485;SDS011;23341;50.296;18.960;2023-09-18T19:07:01;9.38;;;8.45;;
37485;SDS011;23341;50.296;18.960;2023-09-18T19:12:06;10.30;;;9.40;;
37485;SDS011;23341;50.296;18.960;2023-09-18T19:17:12;9.75;;;8.93;;
37485;SDS011;23341;50.296;18.960;2023-09-18T19:22:17;10.50;;;9.40;;
37485;SDS011;23341;50.296;18.960;2023-09-18T19:27:22;10.52;;;9.52;;
37485;SDS011;23341;50.296;18.960;2023-09-18T19:32:27;10.85;;;9.82;;
37485;SDS011;23341;50.296;18.960;2023-09-18T19:37:33;10.55;;;9.50;;
37485;SDS011;23341;50.296;18.960;2023-09-18T19:42:37;16.05;;;9.82;;
37485;SDS011;23341;50.296;18.960;2023-09-18T19:47:43;12.68;;;9.35;;
37485;SDS011;23341;50.296;18.960;2023-09-18T19:52:47;10.82;;;9.52;;
37485;SDS011;23341;50.296;18.960;2023-09-18T19:57:52;15.02;;;9.80;;
37485;SDS011;23341;50.296;18.960;2023-09-18T20:02:58;12.30;;;10.38;;
37485;SDS011;23341;50.296;18.960;2023-09-18T20:08:03;11.13;;;9.68;;
37485;SDS011;23341;50.296;18.960;2023-09-18T20:13:07;11.52;;;9.82;;
37485;SDS011;23341;50.296;18.960;2023-09-18T20:18:14;11.20;;;10.02;;
37485;SDS011;23341;50.296;18.960;2023-09-18T20:23:18;12.82;;;10.07;;
37485;SDS011;23341;50.296;18.960;2023-09-18T20:28:23;11.02;;;9.80;;
37485;SDS011;23341;50.296;18.960;2023-09-18T20:33:28;11.98;;;10.35;;
37485;SDS011;23341;50.296;18.960;2023-09-18T21:00:20;14.38;;;11.75;;
37485;SDS011;23341;50.296;18.960;2023-09-18T21:05:26;13.70;;;12.27;;
37485;SDS011;23341;50.296;18.960;2023-09-18T21:10:30;18.40;;;12.18;;
37485;SDS011;23341;50.296;18.960;2023-09-18T21:15:36;14.88;;;11.93;;
37485;SDS011;23341;50.296;18.960;2023-09-18T21:20:42;14.25;;;11.55;;
37485;SDS011;23341;50.296;18.960;2023-09-18T21:25:47;14.10;;;12.65;;
37485;SDS011;23341;50.296;18.960;2023-09-18T21:30:54;12.60;;;11.30;;
37485;SDS011;23341;50.296;18.960;2023-09-18T21:35:58;15.77;;;11.75;;
37485;SDS011;23341;50.296;18.960;2023-09-18T21:41:03;12.48;;;11.30;;
37485;SDS011;23341;50.296;18.960;2023-09-18T21:46:11;13.80;;;11.77;;
37485;SDS011;23341;50.296;18.960;2023-09-18T21:51:16;13.40;;;11.88;;
37485;SDS011;23341;50.296;18.960;2023-09-18T21:56:21;13.90;;;12.38;;
37485;SDS011;23341;50.296;18.960;2023-09-18T22:01:26;13.75;;;12.52;;
37485;SDS011;23341;50.296;18.960;2023-09-18T22:06:32;12.85;;;11.60;;
37485;SDS011;23341;50.296;18.960;2023-09-18T22:11:36;13.82;;;11.60;;
37485;SDS011;23341;50.296;18.960;2023-09-18T22:16:42;15.52;;;12.90;;
37485;SDS011;23341;50.296;18.960;2023-09-18T22:21:47;13.55;;;12.13;;
37485;SDS011;23341;50.296;18.960;2023-09-18T22:26:51;14.02;;;11.07;;
37485;SDS011;23341;50.296;18.960;2023-09-18T22:31:57;13.32;;;11.50;;
37485;SDS011;23341;50.296;18.960;2023-09-18T22:37:01;12.68;;;11.10;;
37485;SDS011;23341;50.296;18.960;2023-09-18T22:58:00;13.30;;;11.18;;
37485;SDS011;23341;50.296;18.960;2023-09-18T23:03:06;12.55;;;11.32;;
37485;SDS011;23341;50.296;18.960;2023-09-18T23:08:13;16.05;;;12.27;;
37485;SDS011;23341;50.296;18.960;2023-09-18T23:13:19;12.05;;;11.00;;
37485;SDS011;23341;50.296;18.960;2023-09-18T23:18:27;14.25;;;12.85;;
37485;SDS011;23341;50.296;18.960;2023-09-18T23:23:33;15.30;;;11.93;;
37485;SDS011;23341;50.296;18.960;2023-09-18T23:28:41;12.05;;;10.82;;
37485;SDS011;23341;50.296;18.960;2023-09-18T23:33:47;15.18;;;10.73;;
37485;SDS011;23341;50.296;18.960;2023-09-18T23:38:52;15.13;;;11.65;;
37485;SDS011;23341;50.296;18.960;2023-09-18T23:43:58;13.05;;;10.98;;
37485;SDS011;23341;50.296;18.960;2023-09-18T23:49:02;12.43;;;11.20;;
37485;SDS011;23341;50.296;18.960;2023-09-18T23:54:08;12.27;;;10.98;;
37485;SDS011;23341;50.296;18.960;2023-09-18T23:59:14;16.15;;;11.27;;
